createdAt,value
2023-03-25T00:02:41.584Z,11.58
2023-03-25T00:06:06.820Z,11.6
2023-03-25T00:09:32.041Z,11.54
2023-03-25T00:12:57.294Z,11.49
2023-03-25T00:16:22.551Z,11.46
2023-03-25T00:19:47.734Z,11.37
2023-03-25T00:23:12.984Z,11.29
2023-03-25T00:26:38.204Z,11.24
2023-03-25T00:30:03.469Z,11.16
2023-03-25T00:33:28.669Z,11.13
2023-03-25T00:36:53.992Z,11.07
2023-03-25T00:40:19.209Z,10.98
2023-03-25T00:43:44.471Z,10.93
2023-03-25T00:47:09.714Z,10.91
2023-03-25T00:50:34.903Z,10.88
2023-03-25T00:54:00.122Z,10.88
2023-03-25T00:57:25.319Z,10.93
2023-03-25T01:00:50.547Z,10.92
2023-03-25T01:04:15.805Z,10.88
2023-03-25T01:07:41.054Z,10.85
2023-03-25T01:11:06.252Z,10.83
2023-03-25T01:14:31.494Z,10.8
2023-03-25T01:17:56.708Z,10.76
2023-03-25T01:21:21.994Z,10.72
2023-03-25T01:24:47.189Z,10.72
2023-03-25T01:28:12.399Z,10.69
2023-03-25T01:31:37.738Z,10.65
2023-03-25T01:35:02.927Z,10.59
2023-03-25T01:38:28.205Z,10.58
2023-03-25T01:41:53.369Z,10.57
2023-03-25T01:45:18.604Z,10.57
2023-03-25T01:48:43.800Z,10.57
2023-03-25T01:52:09.038Z,10.58
2023-03-25T01:55:34.295Z,10.6
2023-03-25T01:58:59.425Z,10.55
2023-03-25T02:02:24.677Z,10.51
2023-03-25T02:05:50.045Z,10.5
2023-03-25T02:09:15.159Z,10.42
2023-03-25T02:12:40.444Z,10.43
2023-03-25T02:16:05.641Z,10.41
2023-03-25T02:19:30.869Z,10.4
2023-03-25T02:22:56.088Z,10.36
2023-03-25T02:26:21.309Z,10.36
2023-03-25T02:29:46.519Z,10.36
2023-03-25T02:33:11.724Z,10.35
2023-03-25T02:36:36.911Z,10.3
2023-03-25T02:40:02.138Z,10.22
2023-03-25T02:43:27.320Z,10.16
2023-03-25T02:46:52.716Z,10.13
2023-03-25T02:50:17.766Z,10.09
2023-03-25T02:53:42.974Z,10.09
2023-03-25T02:57:08.262Z,10.1
2023-03-25T03:00:33.378Z,10.06
2023-03-25T03:03:58.602Z,10
2023-03-25T03:07:23.822Z,9.93
2023-03-25T03:10:49.031Z,9.86
2023-03-25T03:14:14.255Z,9.65
2023-03-25T03:17:39.556Z,9.3
2023-03-25T03:21:04.747Z,8.95
2023-03-25T03:24:29.975Z,8.76
2023-03-25T03:27:55.190Z,8.57
2023-03-25T03:31:47.473Z,8.46
2023-03-25T03:34:45.628Z,8.42
2023-03-25T03:38:10.844Z,8.41
2023-03-25T03:41:36.071Z,8.43
2023-03-25T03:45:01.264Z,8.45
2023-03-25T03:48:26.453Z,8.43
2023-03-25T03:51:51.622Z,8.42
2023-03-25T03:55:16.858Z,8.44
2023-03-25T03:58:42.007Z,8.41
2023-03-25T04:02:07.228Z,8.4
2023-03-25T04:05:32.447Z,8.39
2023-03-25T04:08:57.671Z,8.34
2023-03-25T04:12:22.893Z,8.32
2023-03-25T04:15:48.202Z,8.3
2023-03-25T04:19:13.275Z,8.29
2023-03-25T04:22:38.464Z,8.33
2023-03-25T04:26:03.624Z,8.39
2023-03-25T04:29:28.860Z,8.43
2023-03-25T04:32:54.027Z,8.44
2023-03-25T04:36:19.207Z,8.5
2023-03-25T04:39:44.336Z,8.57
2023-03-25T04:43:09.462Z,8.65
2023-03-25T04:46:34.638Z,8.74
2023-03-25T04:49:59.792Z,8.74
2023-03-25T04:53:24.956Z,8.74
2023-03-25T04:56:50.207Z,8.77
2023-03-25T05:00:15.344Z,8.86
2023-03-25T05:03:40.564Z,8.9
2023-03-25T05:07:05.764Z,8.95
2023-03-25T05:10:30.949Z,8.99
2023-03-25T05:13:56.121Z,9.05
2023-03-25T05:17:21.379Z,9.11
2023-03-25T05:20:46.563Z,9.18
2023-03-25T05:24:11.753Z,9.19
2023-03-25T05:27:36.913Z,9.21
2023-03-25T05:31:02.121Z,9.24
2023-03-25T05:34:27.370Z,9.24
2023-03-25T05:37:52.592Z,9.31
2023-03-25T05:41:17.782Z,9.33
2023-03-25T05:44:43.051Z,9.31
2023-03-25T05:48:08.320Z,9.26
2023-03-25T05:51:33.617Z,9.22
2023-03-25T05:54:58.656Z,9.21
2023-03-25T05:58:23.765Z,9.2
2023-03-25T06:01:48.881Z,9.15
2023-03-25T06:05:14.245Z,9.06
2023-03-25T06:08:39.219Z,8.98
2023-03-25T06:12:04.399Z,8.9
2023-03-25T06:15:29.673Z,8.87
2023-03-25T06:18:54.648Z,8.84
2023-03-25T06:22:19.797Z,8.82
2023-03-25T06:25:44.907Z,8.8
2023-03-25T06:29:10.066Z,8.8
2023-03-25T06:32:35.167Z,8.8
2023-03-25T06:36:00.313Z,8.78
2023-03-25T06:39:25.418Z,8.76
2023-03-25T06:42:50.532Z,8.73
2023-03-25T06:46:15.784Z,8.72
2023-03-25T06:49:40.786Z,8.67
2023-03-25T06:53:05.895Z,8.7
2023-03-25T06:56:31.063Z,8.7
2023-03-25T06:59:56.139Z,8.71
2023-03-25T07:03:21.281Z,8.66
2023-03-25T07:06:46.376Z,8.56
2023-03-25T07:10:11.498Z,8.54
2023-03-25T07:13:36.610Z,8.57
2023-03-25T07:17:01.763Z,8.6
2023-03-25T07:20:26.918Z,8.57
2023-03-25T07:23:52.000Z,8.56
2023-03-25T07:27:17.143Z,8.55
2023-03-25T07:30:42.261Z,8.52
2023-03-25T07:34:07.416Z,8.5
2023-03-25T07:37:32.561Z,8.62
2023-03-25T07:40:57.641Z,8.76
2023-03-25T07:44:22.764Z,8.91
2023-03-25T07:47:47.953Z,9.01
2023-03-25T07:51:13.107Z,9.09
2023-03-25T07:54:38.349Z,9.11
2023-03-25T07:58:03.514Z,9.13
2023-03-25T08:01:28.718Z,9.15
2023-03-25T08:04:53.919Z,9.15
2023-03-25T08:08:19.153Z,9.12
2023-03-25T08:11:45.297Z,9.12
2023-03-25T08:15:10.445Z,9.13
2023-03-25T08:18:35.615Z,9.3
2023-03-25T08:22:00.847Z,9.47
2023-03-25T08:25:26.007Z,9.59
2023-03-25T08:28:51.194Z,9.66
2023-03-25T08:32:16.353Z,9.7
2023-03-25T08:35:41.576Z,9.66
2023-03-25T08:39:06.757Z,9.7
2023-03-25T08:42:31.981Z,9.77
2023-03-25T08:45:57.199Z,9.87
2023-03-25T08:49:22.345Z,9.92
2023-03-25T08:52:47.436Z,10
2023-03-25T08:56:12.635Z,10.11
2023-03-25T08:59:37.849Z,10.14
2023-03-25T09:03:03.028Z,10.23
2023-03-25T09:06:28.109Z,10.43
2023-03-25T09:09:53.245Z,10.53
2023-03-25T09:13:18.380Z,10.51
2023-03-25T09:16:43.507Z,10.34
2023-03-25T09:20:08.662Z,10.23
2023-03-25T09:23:33.732Z,10.17
2023-03-25T09:26:58.847Z,10.15
2023-03-25T09:30:23.970Z,10.18
2023-03-25T09:33:49.076Z,10.33
2023-03-25T09:37:14.211Z,10.39
2023-03-25T09:40:39.282Z,10.46
2023-03-25T09:44:04.413Z,10.58
2023-03-25T09:47:29.598Z,10.66
2023-03-25T09:50:54.710Z,10.73
2023-03-25T09:54:19.839Z,10.86
2023-03-25T09:57:44.973Z,10.94
2023-03-25T10:01:10.134Z,11.05
2023-03-25T10:04:35.205Z,11.12
2023-03-25T10:08:00.335Z,11.22
2023-03-25T10:11:25.479Z,11.24
2023-03-25T10:14:50.576Z,11.24
2023-03-25T10:18:15.679Z,11.15
2023-03-25T10:21:40.817Z,11.06
2023-03-25T10:25:05.946Z,10.93
2023-03-25T10:28:31.083Z,10.95
2023-03-25T10:31:56.187Z,11.03
2023-03-25T10:35:21.325Z,11.13
2023-03-25T10:38:46.437Z,11.28
2023-03-25T10:42:11.567Z,11.37
2023-03-25T10:45:36.745Z,11.47
2023-03-25T10:49:01.867Z,11.46
2023-03-25T10:52:26.940Z,11.56
2023-03-25T10:55:52.161Z,11.63
2023-03-25T10:59:18.754Z,11.72
2023-03-25T11:02:42.391Z,11.83
2023-03-25T11:06:07.432Z,11.8
2023-03-25T11:09:32.616Z,11.76
2023-03-25T11:12:57.686Z,11.61
2023-03-25T11:16:22.855Z,11.48
2023-03-25T11:19:48.025Z,11.45
2023-03-25T11:23:13.105Z,11.43
2023-03-25T11:26:38.235Z,11.43
2023-03-25T11:30:03.380Z,11.39
2023-03-25T11:33:28.513Z,11.37
2023-03-25T11:36:53.675Z,11.41
2023-03-25T11:40:18.843Z,11.48
2023-03-25T11:43:43.918Z,11.51
2023-03-25T11:47:09.064Z,11.57
2023-03-25T11:50:34.219Z,11.68
2023-03-25T11:53:59.378Z,11.78
2023-03-25T11:57:24.489Z,11.97
2023-03-25T12:00:49.627Z,12.01
2023-03-25T12:04:14.746Z,12.03
2023-03-25T12:07:39.852Z,12.09
2023-03-25T12:11:05.017Z,12.11
2023-03-25T12:14:30.124Z,12.14
2023-03-25T12:17:55.290Z,12.13
2023-03-25T12:21:20.381Z,11.97
2023-03-25T12:24:45.510Z,11.76
2023-03-25T12:28:10.663Z,11.66
2023-03-25T12:31:35.831Z,11.5
2023-03-25T12:35:00.984Z,11.29
2023-03-25T12:38:26.099Z,10.77
2023-03-25T12:41:51.213Z,10.14
2023-03-25T12:45:16.372Z,9.65
2023-03-25T12:48:41.447Z,9.36
2023-03-25T12:52:06.577Z,9.12
2023-03-25T12:55:31.700Z,8.89
2023-03-25T12:58:56.841Z,8.67
2023-03-25T13:02:22.033Z,8.46
2023-03-25T13:05:47.073Z,8.34
2023-03-25T13:09:12.248Z,8.36
2023-03-25T13:12:37.493Z,8.5
2023-03-25T13:16:02.750Z,8.63
2023-03-25T13:19:28.014Z,8.77
2023-03-25T13:22:53.180Z,8.94
2023-03-25T13:26:18.390Z,9.17
2023-03-25T13:29:43.679Z,9.42
2023-03-25T13:33:08.875Z,9.71
2023-03-25T13:36:34.124Z,10.07
2023-03-25T13:39:59.301Z,10.32
2023-03-25T13:43:24.494Z,10.44
2023-03-25T13:46:49.716Z,10.51
2023-03-25T13:50:15.008Z,10.41
2023-03-25T13:53:40.229Z,10.24
2023-03-25T13:57:05.519Z,10.14
2023-03-25T14:00:30.662Z,10.11
2023-03-25T14:03:55.937Z,10.07
2023-03-25T14:07:21.166Z,10.01
2023-03-25T14:10:46.408Z,10
2023-03-25T14:14:11.603Z,10.03
2023-03-25T14:17:36.853Z,10.09
2023-03-25T14:21:02.033Z,10.08
2023-03-25T14:24:27.320Z,10.02
2023-03-25T14:27:52.558Z,10.06
2023-03-25T14:31:17.841Z,10.18
2023-03-25T14:34:43.039Z,10.29
2023-03-25T14:38:08.539Z,10.42
2023-03-25T14:41:33.559Z,10.53
2023-03-25T14:44:58.958Z,10.62
2023-03-25T14:48:25.705Z,10.68
2023-03-25T14:51:49.426Z,10.73
2023-03-25T14:55:14.602Z,10.75
2023-03-25T14:58:39.849Z,10.76
2023-03-25T15:02:05.065Z,10.81
2023-03-25T15:05:30.253Z,10.88
2023-03-25T15:38:58.693Z,8.97
2023-03-25T15:42:23.883Z,10
2023-03-25T15:45:49.124Z,10.38
2023-03-25T15:49:14.299Z,10.65
2023-03-25T15:52:39.512Z,10.83
2023-03-25T15:56:04.747Z,10.98
2023-03-25T15:59:29.942Z,11.1
2023-03-25T16:02:55.194Z,11.19
2023-03-25T16:06:21.138Z,11.21
2023-03-25T16:09:46.389Z,11.24
2023-03-25T16:13:11.641Z,11.24
2023-03-25T16:16:36.859Z,11.24
2023-03-25T16:20:02.130Z,11.22
2023-03-25T16:23:27.398Z,11.2
2023-03-25T16:26:52.635Z,11.2
2023-03-25T16:30:17.926Z,11.17
2023-03-25T16:33:43.162Z,11.17
2023-03-25T16:37:08.379Z,11.11
2023-03-25T16:40:33.601Z,11.04
2023-03-25T16:43:58.809Z,10.94
2023-03-25T16:47:24.650Z,10.86
2023-03-25T16:50:49.332Z,10.8
2023-03-25T16:54:14.391Z,10.77
2023-03-25T16:57:39.583Z,10.73
2023-03-25T17:01:04.802Z,10.7
2023-03-25T17:04:30.047Z,10.64
2023-03-25T17:07:55.166Z,10.6
2023-03-25T17:11:20.352Z,10.58
2023-03-25T17:14:45.605Z,10.56
2023-03-25T17:18:10.829Z,10.54
2023-03-25T17:21:36.043Z,10.51
2023-03-25T17:25:01.215Z,10.56
2023-03-25T17:28:26.400Z,10.56
2023-03-25T17:31:51.603Z,10.55
2023-03-25T17:35:16.804Z,10.58
2023-03-25T17:38:42.015Z,10.63
2023-03-25T17:42:07.271Z,10.66
2023-03-25T17:45:32.478Z,10.66
2023-03-25T17:48:57.679Z,10.64
2023-03-25T17:52:22.870Z,10.62
2023-03-25T17:55:48.113Z,10.61
2023-03-25T17:59:13.279Z,10.6
2023-03-25T18:02:38.581Z,10.58
2023-03-25T18:06:03.837Z,10.51
2023-03-25T18:09:28.996Z,10.41
2023-03-25T18:12:54.236Z,10.32
2023-03-25T18:16:19.422Z,10.22
2023-03-25T18:19:44.645Z,10.18
2023-03-25T18:23:09.873Z,10.14
2023-03-25T18:26:35.151Z,10.08
2023-03-25T18:30:00.425Z,10.01
2023-03-25T18:33:25.647Z,9.93
2023-03-25T18:36:50.937Z,9.9
2023-03-25T18:40:16.214Z,9.9
2023-03-25T18:43:41.475Z,9.9
2023-03-25T18:47:06.762Z,9.93
2023-03-25T18:50:32.104Z,9.95
2023-03-25T18:53:57.356Z,9.96
2023-03-25T18:57:22.674Z,9.93
2023-03-25T19:00:47.983Z,9.96
2023-03-25T19:04:13.231Z,10.02
2023-03-25T19:07:38.497Z,10.06
2023-03-25T19:11:12.513Z,10.06
2023-03-25T19:14:29.789Z,10.06
2023-03-25T19:17:55.700Z,10.08
2023-03-25T19:21:21.292Z,10.1
2023-03-25T19:24:46.906Z,10.07
2023-03-25T19:28:12.600Z,10.02
2023-03-25T19:31:37.904Z,9.9
2023-03-25T19:35:03.210Z,9.81
2023-03-25T19:38:28.523Z,9.77
2023-03-25T19:41:54.800Z,9.72
2023-03-25T19:45:20.136Z,9.74
2023-03-25T19:48:45.411Z,9.76
2023-03-25T19:52:10.726Z,9.78
2023-03-25T19:55:36.149Z,9.75
2023-03-25T19:59:01.430Z,9.71
2023-03-25T20:02:26.822Z,9.69
2023-03-25T20:05:52.233Z,9.68
2023-03-25T20:09:17.371Z,9.65
2023-03-25T20:12:42.734Z,9.6
2023-03-25T20:16:08.070Z,9.54
2023-03-25T20:19:33.373Z,9.55
2023-03-25T20:22:58.676Z,9.57
2023-03-25T20:26:24.042Z,9.59
2023-03-25T20:29:49.388Z,9.58
2023-03-25T20:33:14.721Z,9.58
2023-03-25T20:36:39.984Z,9.59
2023-03-25T20:40:05.334Z,9.64
2023-03-25T20:43:30.697Z,9.65
2023-03-25T20:46:56.300Z,9.66
2023-03-25T20:50:21.516Z,9.67
2023-03-25T20:53:46.747Z,9.68
2023-03-25T20:57:12.050Z,9.65
2023-03-25T21:00:37.316Z,9.63
2023-03-25T21:04:02.548Z,9.62
2023-03-25T21:07:27.831Z,9.61
2023-03-25T21:10:53.465Z,9.61
2023-03-25T21:14:18.369Z,9.62
2023-03-25T21:17:43.722Z,9.64
2023-03-25T21:21:08.952Z,9.65
2023-03-25T21:24:34.208Z,9.63
2023-03-25T21:27:59.466Z,9.57
2023-03-25T21:31:24.760Z,9.56
2023-03-25T21:34:50.078Z,9.56
2023-03-25T21:38:15.343Z,9.56
2023-03-25T21:41:40.572Z,9.55
2023-03-25T21:45:05.830Z,9.5
2023-03-25T21:48:31.066Z,9.46
2023-03-25T21:51:56.340Z,9.45
2023-03-25T21:55:21.648Z,9.44
2023-03-25T21:58:46.872Z,9.42
2023-03-25T22:02:12.121Z,9.42
2023-03-25T22:05:37.370Z,9.47
2023-03-25T22:09:02.601Z,9.47
2023-03-25T22:12:27.890Z,9.49
2023-03-25T22:15:53.231Z,9.47
2023-03-25T22:19:18.374Z,9.46
2023-03-25T22:22:43.707Z,9.43
2023-03-25T22:26:08.965Z,9.33
2023-03-25T22:29:34.384Z,9.24
2023-03-25T22:32:59.541Z,9.19
2023-03-25T22:36:24.755Z,9.15
2023-03-25T22:39:50.044Z,9.12
2023-03-25T22:43:15.319Z,9.08
2023-03-25T22:46:40.719Z,9.07
2023-03-25T22:50:05.840Z,9.04
2023-03-25T22:53:31.097Z,9.01
2023-03-25T22:56:56.390Z,8.98
2023-03-25T23:00:21.624Z,8.98
2023-03-25T23:03:46.980Z,8.99
2023-03-25T23:07:12.207Z,9
2023-03-25T23:10:37.457Z,9.03
2023-03-25T23:14:02.780Z,9.03
2023-03-25T23:17:28.054Z,9
2023-03-25T23:20:53.368Z,8.95
2023-03-25T23:24:18.578Z,8.93
2023-03-25T23:27:43.954Z,8.91
2023-03-25T23:31:09.315Z,8.89
2023-03-25T23:34:34.508Z,8.86
2023-03-25T23:37:59.786Z,8.86
2023-03-25T23:41:25.009Z,8.91
2023-03-25T23:44:50.325Z,8.99
2023-03-25T23:48:15.546Z,9.01
2023-03-25T23:51:40.804Z,9.01
2023-03-25T23:55:06.171Z,8.99
2023-03-25T23:58:31.314Z,8.96
